Time;durP1;ratioP1;P1;durP2;ratioP2;P2;SDS_P1;SDS_P2;PMS_P1;PMS_P2;Temp;Humidity;BMP_temperature;BMP_pressure;BME280_temperature;BME280_humidity;BME280_pressure;Samples;Min_cycle;Max_cycle;Signal;HPM_P1;HPM_P2
2023/08/04 00:01:03;;;;;;;2.30;1.83;;;;;;;;;;5076020;28;20463;-77
2023/08/04 00:03:30;;;;;;;2.03;1.70;;;;;;;;;;5076342;28;20452;-78
2023/08/04 00:05:57;;;;;;;2.27;1.80;;;;;;;;;;5076676;28;20822;-78
2023/08/04 00:08:26;;;;;;;7.43;1.80;;;;;;;;;;5076926;28;20944;-77
2023/08/04 00:10:53;;;;;;;4.30;3.17;;;;;;;;;;5076185;28;20454;-78
2023/08/04 00:13:20;;;;;;;2.63;1.73;;;;;;;;;;5075987;28;20810;-78
2023/08/04 00:15:47;;;;;;;4.90;2.67;;;;;;;;;;5075935;28;20462;-77
2023/08/04 00:18:14;;;;;;;2.67;2.40;;;;;;;;;;5076422;28;20812;-78
2023/08/04 00:20:41;;;;;;;2.67;2.00;;;;;;;;;;5075215;28;20450;-77
2023/08/04 00:23:09;;;;;;;6.00;2.60;;;;;;;;;;5075619;28;20446;-78
2023/08/04 00:25:37;;;;;;;10.90;1.87;;;;;;;;;;5075136;28;20452;-78
2023/08/04 00:28:04;;;;;;;5.73;2.07;;;;;;;;;;5074787;28;20458;-78
2023/08/04 00:30:31;;;;;;;4.60;2.17;;;;;;;;;;5075507;28;20447;-78
2023/08/04 00:32:58;;;;;;;2.50;2.23;;;;;;;;;;5075406;28;20467;-77
2023/08/04 00:35:26;;;;;;;2.80;1.93;;;;;;;;;;5074910;28;20447;-77
2023/08/04 00:37:53;;;;;;;4.13;1.93;;;;;;;;;;5074558;28;20487;-77
2023/08/04 00:40:20;;;;;;;2.90;1.90;;;;;;;;;;5074766;28;20448;-77
2023/08/04 00:42:48;;;;;;;2.40;1.97;;;;;;;;;;5075219;28;20467;-78
2023/08/04 00:45:15;;;;;;;3.43;1.93;;;;;;;;;;5074497;28;20944;-78
2023/08/04 00:47:43;;;;;;;3.87;2.10;;;;;;;;;;5074934;28;20807;-77
2023/08/04 00:50:10;;;;;;;2.90;2.00;;;;;;;;;;5074611;28;20923;-77
2023/08/04 00:52:39;;;;;;;2.63;2.43;;;;;;;;;;5074368;28;20463;-78
2023/08/04 00:55:07;;;;;;;4.77;2.30;;;;;;;;;;5074751;28;20452;-78
2023/08/04 00:57:34;;;;;;;2.20;1.80;;;;;;;;;;5075339;28;20487;-77
2023/08/04 01:00:03;;;;;;;5.10;2.20;;;;;;;;;;5074904;28;20459;-77
2023/08/04 01:02:30;;;;;;;4.67;2.10;;;;;;;;;;5075053;28;20464;-78
2023/08/04 01:04:57;;;;;;;7.83;2.17;;;;;;;;;;5075127;28;20448;-78
2023/08/04 01:07:26;;;;;;;5.97;2.30;;;;;;;;;;5074456;28;20443;-78
2023/08/04 01:09:58;;;;;;;3.07;2.57;;;;;;;;;;5074089;28;20932;-77
2023/08/04 01:12:32;;;;;;;3.80;1.90;;;;;;;;;;5073772;28;20986;-77
2023/08/04 01:15:00;;;;;;;11.93;2.67;;;;;;;;;;5073355;28;20933;-77
2023/08/04 01:17:30;;;;;;;2.93;1.90;;;;;;;;;;5073409;28;20510;-77
2023/08/04 01:19:57;;;;;;;4.30;2.33;;;;;;;;;;5073070;28;20447;-77
2023/08/04 01:22:26;;;;;;;2.67;1.97;;;;;;;;;;5073730;28;20468;-77
2023/08/04 01:24:54;;;;;;;4.70;2.27;;;;;;;;;;5073616;28;20961;-77
2023/08/04 01:27:24;;;;;;;2.60;2.30;;;;;;;;;;5074025;28;20957;-77
2023/08/04 01:29:52;;;;;;;4.90;2.33;;;;;;;;;;5074782;28;20921;-77
2023/08/04 01:32:19;;;;;;;2.87;1.87;;;;;;;;;;5075707;28;20928;-77
2023/08/04 01:34:49;;;;;;;7.23;2.57;;;;;;;;;;5077609;28;20454;-77
2023/08/04 01:37:16;;;;;;;5.80;2.47;;;;;;;;;;5078307;28;21055;-77
2023/08/04 01:39:45;;;;;;;4.57;1.93;;;;;;;;;;5077539;28;20447;-77
2023/08/04 01:42:12;;;;;;;2.30;2.03;;;;;;;;;;5077959;28;20472;-78
2023/08/04 01:44:39;;;;;;;9.63;4.57;;;;;;;;;;5076328;28;20456;-77
2023/08/04 01:47:07;;;;;;;5.47;2.30;;;;;;;;;;5076806;28;20808;-78
2023/08/04 01:49:35;;;;;;;5.70;2.27;;;;;;;;;;5077144;28;20944;-76
2023/08/04 01:52:02;;;;;;;3.40;2.30;;;;;;;;;;5076642;28;20476;-77
2023/08/04 01:54:29;;;;;;;3.33;2.70;;;;;;;;;;5076753;28;20455;-77
2023/08/04 01:56:58;;;;;;;5.57;2.40;;;;;;;;;;5076076;28;21000;-77
2023/08/04 01:59:25;;;;;;;2.73;1.90;;;;;;;;;;5075768;28;20972;-77
2023/08/04 02:01:52;;;;;;;3.57;2.30;;;;;;;;;;5076106;28;20476;-77
2023/08/04 02:04:19;;;;;;;3.70;2.30;;;;;;;;;;5076123;28;20444;-77
2023/08/04 02:06:46;;;;;;;6.43;2.90;;;;;;;;;;5075469;28;20451;-78
2023/08/04 02:09:14;;;;;;;3.47;2.93;;;;;;;;;;5075819;28;20450;-77
2023/08/04 02:11:41;;;;;;;3.70;2.40;;;;;;;;;;5075716;28;20494;-77
2023/08/04 02:14:10;;;;;;;3.43;2.30;;;;;;;;;;5075793;28;20448;-77
2023/08/04 02:16:37;;;;;;;4.60;2.27;;;;;;;;;;5075845;28;20458;-77
2023/08/04 02:19:05;;;;;;;2.53;2.00;;;;;;;;;;5076296;28;20519;-76
2023/08/04 02:21:32;;;;;;;4.73;2.27;;;;;;;;;;5075588;28;20475;-77
2023/08/04 02:23:59;;;;;;;3.43;2.27;;;;;;;;;;5075843;28;20458;-77
2023/08/04 02:26:26;;;;;;;3.53;2.30;;;;;;;;;;5076093;28;20814;-77
2023/08/04 02:28:54;;;;;;;2.80;2.57;;;;;;;;;;5075888;28;20462;-77
2023/08/04 02:31:24;;;;;;;3.80;2.60;;;;;;;;;;5075654;28;20464;-77
2023/08/04 02:33:51;;;;;;;5.43;2.23;;;;;;;;;;5075889;28;20505;-77
2023/08/04 02:36:18;;;;;;;4.80;2.83;;;;;;;;;;5076012;28;20448;-77
2023/08/04 02:38:45;;;;;;;3.77;1.83;;;;;;;;;;5075306;28;20495;-77
2023/08/04 02:41:13;;;;;;;2.83;2.50;;;;;;;;;;5075588;28;20876;-77
2023/08/04 02:43:40;;;;;;;2.53;1.93;;;;;;;;;;5075235;28;20451;-77
2023/08/04 02:46:07;;;;;;;5.10;2.07;;;;;;;;;;5075374;28;20466;-77
2023/08/04 02:48:35;;;;;;;3.93;2.10;;;;;;;;;;5075497;28;20460;-78
2023/08/04 02:51:03;;;;;;;4.70;1.60;;;;;;;;;;5075505;28;20450;-77
2023/08/04 02:53:31;;;;;;;4.17;1.70;;;;;;;;;;5075701;28;20978;-77
2023/08/04 02:55:58;;;;;;;2.90;2.03;;;;;;;;;;5075750;28;20440;-78
2023/08/04 02:58:26;;;;;;;3.07;1.60;;;;;;;;;;5074657;28;20487;-77
2023/08/04 03:00:53;;;;;;;5.40;2.70;;;;;;;;;;5074543;28;20457;-77
2023/08/04 03:03:20;;;;;;;2.10;1.60;;;;;;;;;;5075106;28;20448;-77
2023/08/04 03:05:49;;;;;;;3.43;1.50;;;;;;;;;;5074814;28;20484;-77
2023/08/04 03:08:16;;;;;;;3.10;2.07;;;;;;;;;;5075051;28;20436;-78
2023/08/04 03:10:44;;;;;;;2.27;1.70;;;;;;;;;;5075292;28;20462;-78
2023/08/04 03:13:11;;;;;;;2.10;1.60;;;;;;;;;;5075391;28;20803;-78
2023/08/04 03:15:38;;;;;;;2.20;1.77;;;;;;;;;;5075384;28;20452;-77
2023/08/04 03:18:05;;;;;;;2.47;1.63;;;;;;;;;;5075256;28;20488;-77
2023/08/04 03:20:37;;;;;;;5.23;2.27;;;;;;;;;;5074698;28;20459;-77
2023/08/04 03:23:05;;;;;;;2.97;2.27;;;;;;;;;;5075044;28;20471;-77
2023/08/04 03:25:33;;;;;;;2.03;1.83;;;;;;;;;;5075006;28;20440;-78
2023/08/04 03:28:00;;;;;;;15.83;2.13;;;;;;;;;;5074725;28;20447;-77
2023/08/04 03:30:27;;;;;;;3.27;1.90;;;;;;;;;;5075608;28;20462;-78
2023/08/04 03:32:55;;;;;;;5.73;2.10;;;;;;;;;;5075029;28;20468;-77
2023/08/04 03:35:22;;;;;;;2.50;1.70;;;;;;;;;;5075328;28;20444;-78
2023/08/04 03:37:49;;;;;;;4.30;2.00;;;;;;;;;;5074589;28;20831;-77
2023/08/04 03:40:18;;;;;;;3.47;2.20;;;;;;;;;;5074603;28;20447;-77
2023/08/04 03:42:45;;;;;;;4.47;2.70;;;;;;;;;;5074783;28;20470;-77
2023/08/04 03:45:12;;;;;;;5.13;4.33;;;;;;;;;;5075489;28;20929;-77
2023/08/04 03:47:39;;;;;;;8.00;3.33;;;;;;;;;;5074563;28;20444;-77
2023/08/04 03:50:07;;;;;;;4.43;3.40;;;;;;;;;;5075130;28;20476;-77
2023/08/04 03:52:34;;;;;;;2.60;2.40;;;;;;;;;;5074602;28;20479;-77
2023/08/04 03:55:02;;;;;;;2.30;2.10;;;;;;;;;;5074353;28;20451;-77
2023/08/04 03:57:30;;;;;;;2.67;2.03;;;;;;;;;;5074094;28;20479;-77
2023/08/04 03:59:58;;;;;;;4.73;2.20;;;;;;;;;;5073976;28;20455;-77
2023/08/04 04:02:25;;;;;;;5.47;2.70;;;;;;;;;;5074759;28;20474;-78
2023/08/04 04:04:52;;;;;;;2.40;2.03;;;;;;;;;;5074390;28;20456;-78
2023/08/04 04:07:19;;;;;;;4.47;3.30;;;;;;;;;;5074995;28;20448;-78
2023/08/04 04:09:46;;;;;;;2.70;2.13;;;;;;;;;;5074737;28;20451;-78
2023/08/04 04:12:13;;;;;;;5.77;2.40;;;;;;;;;;5074856;28;20825;-78
2023/08/04 04:14:41;;;;;;;2.10;1.90;;;;;;;;;;5074802;28;20454;-78
2023/08/04 04:17:09;;;;;;;2.70;1.67;;;;;;;;;;5074604;28;20448;-77
2023/08/04 04:19:36;;;;;;;3.70;1.60;;;;;;;;;;5074523;28;20498;-77
2023/08/04 04:22:03;;;;;;;2.80;1.87;;;;;;;;;;5074728;28;20467;-78
2023/08/04 04:24:30;;;;;;;2.53;1.90;;;;;;;;;;5074338;28;20435;-77
2023/08/04 04:26:57;;;;;;;3.07;2.10;;;;;;;;;;5073274;28;20440;-78
2023/08/04 04:29:24;;;;;;;3.73;2.87;;;;;;;;;;5074130;28;20455;-78
2023/08/04 04:31:53;;;;;;;4.43;2.07;;;;;;;;;;5074423;28;20468;-78
2023/08/04 04:34:20;;;;;;;11.90;4.30;;;;;;;;;;5073728;28;20443;-78
2023/08/04 04:36:47;;;;;;;3.80;3.40;;;;;;;;;;5074019;28;20447;-78
2023/08/04 04:39:14;;;;;;;2.23;2.03;;;;;;;;;;5073839;28;20620;-78
2023/08/04 04:41:41;;;;;;;3.17;2.90;;;;;;;;;;5073749;28;20850;-78
2023/08/04 04:44:08;;;;;;;2.60;2.13;;;;;;;;;;5074577;28;20458;-78
2023/08/04 04:46:35;;;;;;;3.97;2.40;;;;;;;;;;5074989;28;20800;-81
2023/08/04 04:49:04;;;;;;;2.53;2.00;;;;;;;;;;5074499;28;20468;-80
2023/08/04 04:51:31;;;;;;;3.90;1.97;;;;;;;;;;5074566;28;20467;-80
2023/08/04 04:53:58;;;;;;;3.10;2.00;;;;;;;;;;5074099;28;20456;-81
2023/08/04 04:56:25;;;;;;;4.50;2.43;;;;;;;;;;5074538;28;20451;-81
2023/08/04 04:58:52;;;;;;;3.70;2.73;;;;;;;;;;5074528;28;20488;-81
2023/08/04 05:01:22;;;;;;;5.77;2.90;;;;;;;;;;5074632;28;20955;-81
2023/08/04 05:03:49;;;;;;;4.40;2.93;;;;;;;;;;5074660;28;20448;-80
2023/08/04 05:06:17;;;;;;;3.67;2.50;;;;;;;;;;5075981;28;20452;-80
2023/08/04 05:08:44;;;;;;;3.10;2.67;;;;;;;;;;5078425;28;20446;-81
2023/08/04 05:11:12;;;;;;;3.30;2.20;;;;;;;;;;5078893;28;20482;-80
2023/08/04 05:13:41;;;;;;;2.27;1.90;;;;;;;;;;5079374;28;20436;-80
2023/08/04 05:16:08;;;;;;;5.07;2.20;;;;;;;;;;5078553;28;20505;-80
2023/08/04 05:18:35;;;;;;;4.30;2.80;;;;;;;;;;5077660;28;20495;-80
2023/08/04 05:21:04;;;;;;;6.77;5.47;;;;;;;;;;5077640;28;20451;-80
2023/08/04 05:23:32;;;;;;;6.93;3.23;;;;;;;;;;5078279;28;20504;-81
2023/08/04 05:25:59;;;;;;;3.47;2.97;;;;;;;;;;5078656;28;20456;-81
2023/08/04 05:28:28;;;;;;;4.10;2.37;;;;;;;;;;5078134;28;20456;-80
2023/08/04 05:30:56;;;;;;;3.33;2.40;;;;;;;;;;5078057;28;20547;-81
2023/08/04 05:33:24;;;;;;;3.70;2.70;;;;;;;;;;5078733;28;20553;-81
2023/08/04 05:35:51;;;;;;;6.20;2.80;;;;;;;;;;5078135;28;20874;-80
2023/08/04 05:38:18;;;;;;;4.73;2.10;;;;;;;;;;5077487;28;20487;-80
2023/08/04 05:40:49;;;;;;;3.63;2.30;;;;;;;;;;5077950;28;20444;-80
2023/08/04 05:43:16;;;;;;;2.50;1.90;;;;;;;;;;5077669;28;20432;-80
2023/08/04 05:45:44;;;;;;;11.43;2.77;;;;;;;;;;5078195;28;20447;-80
2023/08/04 05:48:12;;;;;;;4.17;2.50;;;;;;;;;;5078144;28;20456;-81
2023/08/04 05:50:39;;;;;;;4.10;2.30;;;;;;;;;;5077789;28;20970;-81
2023/08/04 05:53:06;;;;;;;4.47;2.87;;;;;;;;;;5077899;28;21071;-80
2023/08/04 05:55:34;;;;;;;2.40;2.20;;;;;;;;;;5076795;28;20442;-81
2023/08/04 05:58:03;;;;;;;5.13;2.40;;;;;;;;;;5076017;28;20949;-80
2023/08/04 06:00:31;;;;;;;3.40;2.10;;;;;;;;;;5077169;28;20463;-81
2023/08/04 06:02:58;;;;;;;2.03;1.73;;;;;;;;;;5077095;28;20464;-80
2023/08/04 06:05:25;;;;;;;3.60;2.20;;;;;;;;;;5076070;28;20474;-80
2023/08/04 06:07:53;;;;;;;3.83;2.00;;;;;;;;;;5076724;28;20448;-80
2023/08/04 06:10:20;;;;;;;2.60;2.10;;;;;;;;;;5076691;28;20503;-81
2023/08/04 06:12:47;;;;;;;5.80;3.83;;;;;;;;;;5076491;28;20483;-80
2023/08/04 06:15:16;;;;;;;2.60;2.00;;;;;;;;;;5076918;28;20618;-81
2023/08/04 06:17:44;;;;;;;4.73;2.10;;;;;;;;;;5076103;28;20822;-80
2023/08/04 06:20:11;;;;;;;2.60;2.00;;;;;;;;;;5078416;28;20462;-80
2023/08/04 06:22:39;;;;;;;2.30;1.80;;;;;;;;;;5077902;28;20471;-80
2023/08/04 06:25:06;;;;;;;4.50;1.53;;;;;;;;;;5077804;28;20460;-80
2023/08/04 06:27:33;;;;;;;2.20;1.67;;;;;;;;;;5077039;28;20472;-80
2023/08/04 06:30:01;;;;;;;2.47;1.70;;;;;;;;;;5076537;28;20855;-80
2023/08/04 06:32:29;;;;;;;11.73;1.90;;;;;;;;;;5076754;28;20471;-80
2023/08/04 06:34:57;;;;;;;2.47;1.97;;;;;;;;;;5076807;28;20448;-80
2023/08/04 06:37:24;;;;;;;7.40;1.90;;;;;;;;;;5076137;28;20448;-80
2023/08/04 06:39:52;;;;;;;4.23;3.00;;;;;;;;;;5076599;28;20494;-80
2023/08/04 06:42:19;;;;;;;1.90;1.60;;;;;;;;;;5076186;28;20888;-80
2023/08/04 06:44:47;;;;;;;3.80;1.63;;;;;;;;;;5076156;28;20463;-80
2023/08/04 06:47:14;;;;;;;1.90;1.70;;;;;;;;;;5075819;28;20460;-80
2023/08/04 06:49:43;;;;;;;2.50;1.50;;;;;;;;;;5076308;28;20951;-80
2023/08/04 06:52:11;;;;;;;2.00;1.43;;;;;;;;;;5077063;28;20925;-80
2023/08/04 06:54:38;;;;;;;1.70;1.60;;;;;;;;;;5076503;28;20444;-80
2023/08/04 06:57:06;;;;;;;2.90;1.63;;;;;;;;;;5076063;28;20447;-81
2023/08/04 06:59:33;;;;;;;5.10;1.50;;;;;;;;;;5076446;28;20511;-80
2023/08/04 07:02:00;;;;;;;5.27;1.70;;;;;;;;;;5076654;28;20471;-79
2023/08/04 07:04:27;;;;;;;2.10;1.90;;;;;;;;;;5076311;28;20460;-79
2023/08/04 07:06:56;;;;;;;2.33;1.90;;;;;;;;;;5076577;28;20452;-79
2023/08/04 07:09:23;;;;;;;5.50;2.10;;;;;;;;;;5076904;28;20450;-79
2023/08/04 07:11:50;;;;;;;3.10;2.80;;;;;;;;;;5076635;28;20558;-81
2023/08/04 07:14:17;;;;;;;3.57;2.30;;;;;;;;;;5075776;28;20452;-82
2023/08/04 07:16:46;;;;;;;3.50;2.00;;;;;;;;;;5075115;28;20458;-81
2023/08/04 07:19:13;;;;;;;5.23;2.00;;;;;;;;;;5075313;28;20495;-80
2023/08/04 07:21:40;;;;;;;2.10;1.60;;;;;;;;;;5075398;28;20835;-80
2023/08/04 07:24:09;;;;;;;2.27;1.50;;;;;;;;;;5075736;28;20535;-81
2023/08/04 07:26:36;;;;;;;3.50;1.50;;;;;;;;;;5075503;28;20527;-80
2023/08/04 07:29:03;;;;;;;8.83;1.67;;;;;;;;;;5071434;28;20523;-80
2023/08/04 07:31:32;;;;;;;4.00;1.70;;;;;;;;;;5073901;28;20472;-80
2023/08/04 07:33:59;;;;;;;3.20;1.60;;;;;;;;;;5072631;28;20746;-78
2023/08/04 07:36:26;;;;;;;3.33;1.87;;;;;;;;;;5071409;28;20450;-77
2023/08/04 07:38:54;;;;;;;3.27;2.93;;;;;;;;;;5072090;28;20501;-76
2023/08/04 07:41:23;;;;;;;3.10;1.83;;;;;;;;;;5071881;28;20480;-76
2023/08/04 07:43:50;;;;;;;1.70;1.50;;;;;;;;;;5071567;28;20458;-76
2023/08/04 07:46:19;;;;;;;4.00;1.83;;;;;;;;;;5071401;28;20447;-76
2023/08/04 07:48:46;;;;;;;3.20;1.63;;;;;;;;;;5071755;28;20452;-76
2023/08/04 07:51:13;;;;;;;7.43;1.90;;;;;;;;;;5071575;28;20479;-76
2023/08/04 07:53:41;;;;;;;3.40;1.87;;;;;;;;;;5072133;28;20815;-76
2023/08/04 07:56:08;;;;;;;3.37;1.83;;;;;;;;;;5072160;28;20451;-76
2023/08/04 07:58:36;;;;;;;2.90;1.70;;;;;;;;;;5072291;28;20491;-75
2023/08/04 08:01:04;;;;;;;2.83;1.73;;;;;;;;;;5072458;28;20465;-76
2023/08/04 08:03:32;;;;;;;3.13;2.17;;;;;;;;;;5072782;28;20440;-76
2023/08/04 08:05:59;;;;;;;2.20;1.50;;;;;;;;;;5072326;28;20951;-76
2023/08/04 08:08:26;;;;;;;3.73;1.90;;;;;;;;;;5072307;28;20451;-75
2023/08/04 08:10:53;;;;;;;5.83;1.70;;;;;;;;;;5072643;28;20522;-77
2023/08/04 08:13:21;;;;;;;2.93;1.60;;;;;;;;;;5072784;28;20457;-76
2023/08/04 08:15:49;;;;;;;1.87;1.67;;;;;;;;;;5072604;28;20918;-75
2023/08/04 08:18:16;;;;;;;4.57;1.70;;;;;;;;;;5072108;28;20459;-76
2023/08/04 08:20:44;;;;;;;2.07;1.47;;;;;;;;;;5072320;28;20455;-76
2023/08/04 08:23:11;;;;;;;2.80;1.30;;;;;;;;;;5072404;28;20454;-76
2023/08/04 08:25:38;;;;;;;2.80;1.20;;;;;;;;;;5072027;28;20451;-75
2023/08/04 08:28:06;;;;;;;3.00;1.30;;;;;;;;;;5072672;28;20764;-76
2023/08/04 08:30:33;;;;;;;2.80;1.30;;;;;;;;;;5072081;28;20448;-75
2023/08/04 08:33:01;;;;;;;2.70;1.50;;;;;;;;;;5072239;28;20467;-75
2023/08/04 08:35:29;;;;;;;2.23;1.60;;;;;;;;;;5071994;28;20490;-76
2023/08/04 08:37:56;;;;;;;3.33;1.47;;;;;;;;;;5072299;28;20452;-77
2023/08/04 08:40:25;;;;;;;2.37;1.63;;;;;;;;;;5072546;28;20955;-77
2023/08/04 08:42:52;;;;;;;1.63;1.23;;;;;;;;;;5075945;28;20467;-77
2023/08/04 08:45:19;;;;;;;1.80;1.30;;;;;;;;;;5076230;28;20466;-77
2023/08/04 08:47:47;;;;;;;2.30;1.53;;;;;;;;;;5076182;28;20514;-77
2023/08/04 08:50:17;;;;;;;5.17;1.90;;;;;;;;;;5076092;28;20463;-77
2023/08/04 08:52:46;;;;;;;6.03;1.90;;;;;;;;;;5075434;28;20483;-77
2023/08/04 08:55:13;;;;;;;3.53;1.83;;;;;;;;;;5075908;28;20455;-77
2023/08/04 08:57:41;;;;;;;5.13;2.23;;;;;;;;;;5075872;28;20448;-75
2023/08/04 09:00:10;;;;;;;1.70;1.30;;;;;;;;;;5075256;28;20999;-76
2023/08/04 09:02:38;;;;;;;2.90;1.67;;;;;;;;;;5075846;28;20493;-77
2023/08/04 09:05:05;;;;;;;2.80;1.43;;;;;;;;;;5075825;28;20508;-76
2023/08/04 09:07:34;;;;;;;4.90;1.50;;;;;;;;;;5075453;28;20447;-76
2023/08/04 09:10:01;;;;;;;2.23;1.83;;;;;;;;;;5075978;28;20467;-77
2023/08/04 09:12:29;;;;;;;3.93;1.57;;;;;;;;;;5075638;28;20964;-77
2023/08/04 09:14:57;;;;;;;2.63;1.70;;;;;;;;;;5075109;28;20825;-75
2023/08/04 09:17:31;;;;;;;2.50;1.57;;;;;;;;;;5075359;28;20502;-77
2023/08/04 09:19:58;;;;;;;2.37;1.60;;;;;;;;;;5075412;28;20858;-75
2023/08/04 09:22:25;;;;;;;3.13;1.40;;;;;;;;;;5075069;28;20474;-75
2023/08/04 09:25:03;;;;;;;2.97;1.40;;;;;;;;;;5074974;28;20454;-75
2023/08/04 09:27:33;;;;;;;2.20;1.60;;;;;;;;;;5075347;28;20598;-76
2023/08/04 09:30:01;;;;;;;1.70;1.47;;;;;;;;;;5075027;28;20447;-75
2023/08/04 09:32:28;;;;;;;4.47;1.70;;;;;;;;;;5075472;28;20836;-77
2023/08/04 09:35:02;;;;;;;2.00;1.50;;;;;;;;;;5075253;28;20906;-77
2023/08/04 09:37:31;;;;;;;3.60;1.50;;;;;;;;;;5075131;28;20539;-76
2023/08/04 09:39:58;;;;;;;2.73;1.33;;;;;;;;;;5075187;28;20831;-77
2023/08/04 09:42:26;;;;;;;1.87;1.40;;;;;;;;;;5075353;28;21154;-77
2023/08/04 09:44:54;;;;;;;1.70;1.30;;;;;;;;;;5076259;28;20853;-79
2023/08/04 09:47:25;;;;;;;1.60;1.30;;;;;;;;;;5077082;28;20459;-79
2023/08/04 09:49:52;;;;;;;4.87;1.53;;;;;;;;;;5076273;28;20546;-80
2023/08/04 09:52:23;;;;;;;3.73;1.93;;;;;;;;;;5074607;28;20480;-77
2023/08/04 09:54:51;;;;;;;1.80;1.40;;;;;;;;;;5076117;28;20784;-79
2023/08/04 09:57:18;;;;;;;3.80;1.70;;;;;;;;;;5076780;28;20462;-79
2023/08/04 09:59:48;;;;;;;7.93;1.80;;;;;;;;;;5075910;28;20501;-77
2023/08/04 10:02:15;;;;;;;1.97;1.50;;;;;;;;;;5076585;28;20551;-78
2023/08/04 10:04:43;;;;;;;3.40;1.63;;;;;;;;;;5076521;28;20448;-79
2023/08/04 10:07:10;;;;;;;1.60;1.20;;;;;;;;;;5076126;28;20446;-79
2023/08/04 10:09:37;;;;;;;2.70;1.27;;;;;;;;;;5075994;28;20497;-79
2023/08/04 10:12:06;;;;;;;1.97;1.43;;;;;;;;;;5077068;28;21002;-79
2023/08/04 10:14:33;;;;;;;7.50;1.80;;;;;;;;;;5076414;28;20455;-79
2023/08/04 10:17:02;;;;;;;2.00;1.10;;;;;;;;;;5077046;28;20450;-79
2023/08/04 10:19:29;;;;;;;2.07;1.30;;;;;;;;;;5076322;28;20488;-79
2023/08/04 10:22:04;;;;;;;2.03;1.40;;;;;;;;;;5076200;28;20474;-79
2023/08/04 10:24:31;;;;;;;2.80;1.50;;;;;;;;;;5077087;28;20462;-78
2023/08/04 10:26:58;;;;;;;18.80;12.50;;;;;;;;;;5075962;28;20958;-79
2023/08/04 10:29:31;;;;;;;3.40;2.70;;;;;;;;;;5076292;28;20479;-78
2023/08/04 10:32:03;;;;;;;2.70;1.30;;;;;;;;;;5075817;28;20481;-79
2023/08/04 10:34:32;;;;;;;1.70;1.13;;;;;;;;;;5076296;28;20443;-79
2023/08/04 10:37:05;;;;;;;1.80;1.40;;;;;;;;;;5076259;28;20550;-79
2023/08/04 10:39:33;;;;;;;15.23;8.93;;;;;;;;;;5076135;28;20484;-78
2023/08/04 10:42:01;;;;;;;4.47;2.20;;;;;;;;;;5075368;28;20830;-79
2023/08/04 10:44:31;;;;;;;2.17;1.27;;;;;;;;;;5076231;28;20456;-78
2023/08/04 10:47:03;;;;;;;4.33;1.90;;;;;;;;;;5076265;28;20455;-79
2023/08/04 10:49:32;;;;;;;3.80;1.40;;;;;;;;;;5075794;28;20447;-79
2023/08/04 10:52:00;;;;;;;2.20;1.40;;;;;;;;;;5076004;28;20525;-79
2023/08/04 10:54:27;;;;;;;3.43;1.90;;;;;;;;;;5075731;28;20447;-78
2023/08/04 10:56:54;;;;;;;2.70;1.57;;;;;;;;;;5077198;28;20461;-79
2023/08/04 10:59:21;;;;;;;3.90;1.83;;;;;;;;;;5075377;28;20829;-79
2023/08/04 11:01:48;;;;;;;3.13;1.57;;;;;;;;;;5075640;28;20479;-79
2023/08/04 11:04:16;;;;;;;3.77;2.03;;;;;;;;;;5075411;28;20451;-79
2023/08/04 11:06:45;;;;;;;3.17;1.33;;;;;;;;;;5075177;28;20505;-79
2023/08/04 11:09:12;;;;;;;3.00;1.50;;;;;;;;;;5075649;28;20455;-79
2023/08/04 11:11:39;;;;;;;3.63;2.23;;;;;;;;;;5075338;28;20944;-79
2023/08/04 11:14:08;;;;;;;6.63;1.90;;;;;;;;;;5075848;28;20531;-80
2023/08/04 11:16:36;;;;;;;2.50;1.47;;;;;;;;;;5074627;28;20443;-79
2023/08/04 11:19:09;;;;;;;2.17;1.53;;;;;;;;;;5075695;28;20531;-80
2023/08/04 11:21:36;;;;;;;3.13;2.20;;;;;;;;;;5075136;28;20525;-79
2023/08/04 11:24:05;;;;;;;2.50;1.30;;;;;;;;;;5074913;28;20448;-79
2023/08/04 11:26:32;;;;;;;2.43;2.00;;;;;;;;;;5074157;28;20451;-78
2023/08/04 11:29:00;;;;;;;3.67;2.30;;;;;;;;;;5073319;28;20451;-78
2023/08/04 11:31:27;;;;;;;2.13;1.80;;;;;;;;;;5076162;28;20533;-83
2023/08/04 11:33:54;;;;;;;1.80;1.40;;;;;;;;;;5081235;28;20479;-83
2023/08/04 11:36:22;;;;;;;3.40;1.60;;;;;;;;;;5081726;28;20460;-86
2023/08/04 11:38:49;;;;;;;2.50;2.00;;;;;;;;;;5080272;28;20527;-83
2023/08/04 11:41:17;;;;;;;3.13;1.70;;;;;;;;;;5083838;28;20616;-83
2023/08/04 11:43:45;;;;;;;2.93;1.80;;;;;;;;;;5080720;28;20436;-83
2023/08/04 11:46:13;;;;;;;2.17;1.63;;;;;;;;;;5078523;28;20444;-83
2023/08/04 11:48:40;;;;;;;1.93;1.27;;;;;;;;;;5078177;28;20862;-83
2023/08/04 11:51:08;;;;;;;3.43;1.50;;;;;;;;;;5078979;28;20828;-85
2023/08/04 11:53:35;;;;;;;3.07;1.27;;;;;;;;;;5078930;28;20465;-85
2023/08/04 11:56:03;;;;;;;3.97;1.43;;;;;;;;;;5077059;28;20456;-86
2023/08/04 11:58:35;;;;;;;2.50;2.00;;;;;;;;;;5076009;28;20450;-84
2023/08/04 12:01:02;;;;;;;2.33;2.07;;;;;;;;;;5075214;28;20498;-82
2023/08/04 12:03:42;;;;;;;3.80;2.37;;;;;;;;;;5076637;28;20452;-82
2023/08/04 12:06:14;;;;;;;2.43;1.40;;;;;;;;;;5076522;28;20556;-84
2023/08/04 12:08:41;;;;;;;2.30;1.70;;;;;;;;;;5076699;28;20509;-82
2023/08/04 12:11:08;;;;;;;1.80;1.43;;;;;;;;;;5076430;28;20476;-82
2023/08/04 12:13:37;;;;;;;1.70;1.40;;;;;;;;;;5079628;28;20448;-84
2023/08/04 12:16:04;;;;;;;1.77;1.40;;;;;;;;;;5075839;28;20452;-83
2023/08/04 12:18:31;;;;;;;4.27;1.67;;;;;;;;;;5076423;28;20455;-84
2023/08/04 12:20:58;;;;;;;3.70;1.33;;;;;;;;;;5076425;28;20584;-84
2023/08/04 12:23:26;;;;;;;3.60;1.40;;;;;;;;;;5077467;28;20450;-84
2023/08/04 12:25:53;;;;;;;2.50;1.50;;;;;;;;;;5077031;28;20501;-84
2023/08/04 12:28:20;;;;;;;2.83;1.40;;;;;;;;;;5074185;28;20952;-83
2023/08/04 12:30:49;;;;;;;2.13;1.40;;;;;;;;;;5073605;28;20448;-84
2023/08/04 12:33:16;;;;;;;2.57;1.43;;;;;;;;;;5074446;28;20976;-83
2023/08/04 12:35:43;;;;;;;4.20;2.03;;;;;;;;;;5073821;28;20448;-84
2023/08/04 12:38:12;;;;;;;2.50;1.50;;;;;;;;;;5074357;28;20483;-84
2023/08/04 12:40:39;;;;;;;3.30;1.47;;;;;;;;;;5075058;28;20484;-83
2023/08/04 12:43:07;;;;;;;1.60;1.20;;;;;;;;;;5073589;28;20519;-83
2023/08/04 12:45:34;;;;;;;7.17;1.80;;;;;;;;;;5073041;28;20886;-84
2023/08/04 12:48:04;;;;;;;2.17;1.27;;;;;;;;;;5074116;28;20463;-83
2023/08/04 12:50:31;;;;;;;3.80;1.80;;;;;;;;;;5073948;28;20494;-84
2023/08/04 12:52:58;;;;;;;1.60;1.10;;;;;;;;;;5073574;28;20480;-84
2023/08/04 12:55:27;;;;;;;1.90;1.33;;;;;;;;;;5074400;28;20444;-83
2023/08/04 12:57:54;;;;;;;2.83;1.40;;;;;;;;;;5074340;28;20459;-84
2023/08/04 13:00:21;;;;;;;2.37;1.47;;;;;;;;;;5073150;28;20491;-83
2023/08/04 13:02:48;;;;;;;3.23;1.40;;;;;;;;;;5071359;28;20518;-84
2023/08/04 13:05:17;;;;;;;1.60;1.10;;;;;;;;;;5075111;28;20443;-83
2023/08/04 13:07:44;;;;;;;1.80;1.40;;;;;;;;;;5073161;28;20455;-84
2023/08/04 13:10:11;;;;;;;3.10;1.60;;;;;;;;;;5073520;28;20848;-83
2023/08/04 13:12:38;;;;;;;2.57;1.40;;;;;;;;;;5073864;28;20464;-83
2023/08/04 13:15:06;;;;;;;2.60;1.13;;;;;;;;;;5073100;28;20440;-83
2023/08/04 13:17:33;;;;;;;2.63;1.47;;;;;;;;;;5072991;28;20467;-83
2023/08/04 13:20:00;;;;;;;1.83;1.20;;;;;;;;;;5072173;28;20505;-83
2023/08/04 13:22:29;;;;;;;2.40;1.30;;;;;;;;;;5073048;28;20458;-83
2023/08/04 13:24:56;;;;;;;2.30;2.10;;;;;;;;;;5072790;28;20456;-83
2023/08/04 13:27:23;;;;;;;1.90;1.47;;;;;;;;;;5074539;28;20479;-83
2023/08/04 13:29:50;;;;;;;2.07;1.30;;;;;;;;;;5075806;28;20440;-82
2023/08/04 13:32:17;;;;;;;1.50;1.23;;;;;;;;;;5075945;28;20479;-83
2023/08/04 13:34:44;;;;;;;1.70;1.20;;;;;;;;;;5075777;28;20443;-83
2023/08/04 13:37:12;;;;;;;2.20;1.30;;;;;;;;;;5076064;28;20457;-82
2023/08/04 13:39:40;;;;;;;2.47;1.50;;;;;;;;;;5076616;28;20944;-82
2023/08/04 13:42:07;;;;;;;2.33;1.50;;;;;;;;;;5075758;28;21051;-83
2023/08/04 13:44:34;;;;;;;2.93;1.73;;;;;;;;;;5076264;28;20464;-82
2023/08/04 13:47:02;;;;;;;2.90;1.87;;;;;;;;;;5075592;28;20559;-83
2023/08/04 13:49:29;;;;;;;3.50;1.50;;;;;;;;;;5076070;28;20511;-83
2023/08/04 13:51:56;;;;;;;5.47;2.00;;;;;;;;;;5074855;28;20472;-83
2023/08/04 13:54:23;;;;;;;2.63;1.70;;;;;;;;;;5074975;28;20456;-83
2023/08/04 13:56:52;;;;;;;3.43;1.37;;;;;;;;;;5075438;28;20452;-83
2023/08/04 13:59:19;;;;;;;3.20;1.43;;;;;;;;;;5075260;28;20460;-83
2023/08/04 14:01:46;;;;;;;2.47;1.30;;;;;;;;;;5075530;28;20586;-83
2023/08/04 14:04:14;;;;;;;4.90;1.40;;;;;;;;;;5076117;28;20817;-83
2023/08/04 14:06:41;;;;;;;3.60;1.40;;;;;;;;;;5075319;28;20471;-84
2023/08/04 14:09:08;;;;;;;5.53;1.93;;;;;;;;;;5075016;28;20752;-83
2023/08/04 14:11:35;;;;;;;2.03;1.50;;;;;;;;;;5075643;28;20563;-84
2023/08/04 14:14:04;;;;;;;1.70;1.10;;;;;;;;;;5074544;28;20496;-84
2023/08/04 14:16:31;;;;;;;2.13;1.30;;;;;;;;;;5074842;28;20443;-79
2023/08/04 14:18:58;;;;;;;5.33;1.90;;;;;;;;;;5074584;28;20764;-79
2023/08/04 14:21:25;;;;;;;1.80;1.37;;;;;;;;;;5074325;28;20495;-79
2023/08/04 14:23:53;;;;;;;3.13;1.27;;;;;;;;;;5074917;28;20451;-79
2023/08/04 14:26:21;;;;;;;2.47;1.42;;;;;;;;;;5073859;28;20448;-79
2023/08/04 14:28:48;;;;;;;1.93;1.40;;;;;;;;;;5075070;28;20209;-83
2023/08/04 14:31:16;;;;;;;3.10;1.40;;;;;;;;;;5076528;28;20976;-81
2023/08/04 14:33:43;;;;;;;4.23;2.07;;;;;;;;;;5080939;28;20543;-81
2023/08/04 14:36:10;;;;;;;1.63;1.33;;;;;;;;;;5080617;28;20464;-81
2023/08/04 14:38:38;;;;;;;2.07;1.23;;;;;;;;;;5080156;28;20452;-81
2023/08/04 14:41:05;;;;;;;3.67;2.40;;;;;;;;;;5079948;28;21387;-82
2023/08/04 14:43:32;;;;;;;2.47;1.57;;;;;;;;;;5079894;28;20444;-83
2023/08/04 14:45:59;;;;;;;3.10;1.60;;;;;;;;;;5076448;28;20854;-81